createdAt,value
2023-03-22T00:04:26.819Z,9.50
2023-03-22T00:09:28.360Z,9.50
2023-03-22T00:14:29.978Z,9.50
2023-03-22T00:19:34.376Z,9.30
2023-03-22T00:24:36.073Z,9.20
2023-03-22T00:29:37.721Z,9.00
2023-03-22T00:34:39.299Z,8.90
2023-03-22T00:39:40.884Z,8.80
2023-03-22T00:44:42.484Z,8.90
2023-03-22T00:49:44.114Z,9.00
2023-03-22T00:54:45.741Z,9.10
2023-03-22T00:59:47.370Z,9.30
2023-03-22T01:04:49.892Z,9.30
2023-03-22T01:09:51.679Z,9.40
2023-03-22T01:14:53.264Z,9.30
2023-03-22T01:19:54.880Z,9.30
2023-03-22T01:24:56.446Z,9.20
2023-03-22T01:29:58.032Z,9.20
2023-03-22T01:34:59.617Z,9.20
2023-03-22T01:40:01.224Z,9.40
2023-03-22T01:45:15.422Z,9.40
2023-03-22T01:50:17.471Z,9.40
2023-03-22T01:55:22.676Z,9.40
2023-03-22T02:00:24.345Z,9.60
2023-03-22T02:05:26.441Z,9.60
2023-03-22T02:10:28.463Z,9.60
2023-03-22T02:15:36.830Z,9.70
2023-03-22T02:20:57.577Z,9.70
2023-03-22T02:25:59.185Z,9.60
2023-03-22T02:31:01.039Z,9.70
2023-03-22T02:36:14.621Z,9.80
2023-03-22T02:41:16.177Z,9.90
2023-03-22T02:46:22.204Z,10.10
2023-03-22T02:51:34.380Z,10.20
2023-03-22T02:56:51.108Z,10.40
2023-03-22T03:01:54.517Z,10.40
2023-03-22T03:06:58.929Z,10.40
2023-03-22T03:12:00.511Z,10.60
2023-03-22T03:17:11.855Z,10.50
2023-03-22T03:22:13.368Z,10.40
2023-03-22T03:27:17.691Z,10.30
2023-03-22T03:32:28.285Z,10.20
2023-03-22T03:37:39.201Z,10.00
2023-03-22T03:42:44.059Z,9.90
2023-03-22T03:47:47.049Z,9.90
2023-03-22T03:52:48.748Z,9.90
2023-03-22T03:57:50.407Z,10.00
2023-03-22T04:02:52.009Z,9.90
2023-03-22T04:07:53.622Z,9.90
2023-03-22T04:12:55.237Z,10.00
2023-03-22T04:17:57.067Z,9.90
2023-03-22T04:22:58.661Z,10.00
2023-03-22T04:28:00.557Z,9.90
2023-03-22T04:33:08.225Z,9.90
2023-03-22T04:38:09.789Z,9.70
2023-03-22T04:43:13.734Z,9.40
2023-03-22T04:48:15.595Z,9.20
2023-03-22T04:53:17.198Z,9.00
2023-03-22T04:58:22.032Z,8.90
2023-03-22T05:03:24.135Z,8.80
2023-03-22T05:08:26.254Z,8.70
2023-03-22T05:13:28.019Z,8.70
2023-03-22T05:18:30.295Z,8.60
2023-03-22T05:23:32.102Z,8.60
2023-03-22T05:28:34.274Z,8.60
2023-03-22T05:33:35.857Z,8.80
2023-03-22T05:38:37.486Z,8.70
2023-03-22T05:43:39.186Z,8.60
2023-03-22T05:48:41.237Z,8.70
2023-03-22T05:53:43.603Z,8.60
2023-03-22T05:58:45.344Z,8.70
2023-03-22T06:03:48.345Z,8.80
2023-03-22T06:08:49.958Z,9.00
2023-03-22T06:13:52.466Z,9.10
2023-03-22T06:18:54.086Z,9.40
2023-03-22T06:23:55.696Z,9.30
2023-03-22T06:28:57.268Z,9.30
2023-03-22T06:33:58.906Z,9.40
2023-03-22T06:39:02.499Z,9.50
2023-03-22T06:44:04.129Z,9.50
2023-03-22T06:49:06.091Z,9.50
2023-03-22T06:54:07.662Z,9.60
2023-03-22T06:59:09.261Z,9.70
2023-03-22T07:04:10.923Z,9.80
2023-03-22T07:09:12.514Z,9.90
2023-03-22T07:14:14.209Z,10.00
2023-03-22T07:19:17.350Z,10.20
2023-03-22T07:24:18.978Z,10.40
2023-03-22T07:29:20.597Z,10.90
2023-03-22T07:34:22.210Z,11.30
2023-03-22T07:39:24.909Z,11.40
2023-03-22T07:44:26.793Z,11.50
2023-03-22T07:49:28.572Z,11.90
2023-03-22T07:54:34.222Z,12.00
2023-03-22T07:59:37.934Z,12.10
2023-03-22T08:04:42.222Z,12.40
2023-03-22T08:09:44.378Z,12.40
2023-03-22T08:14:50.343Z,12.50
2023-03-22T08:19:54.291Z,12.40
2023-03-22T08:24:56.363Z,12.30
2023-03-22T08:29:58.749Z,12.30
2023-03-22T08:35:00.506Z,12.70
2023-03-22T08:40:02.174Z,13.40
2023-03-22T08:45:04.453Z,14.10
2023-03-22T08:50:06.460Z,13.80
2023-03-22T08:55:08.831Z,13.60
2023-03-22T09:00:11.221Z,13.80
2023-03-22T09:05:13.707Z,14.30
2023-03-22T09:10:16.791Z,14.50
2023-03-22T09:15:18.440Z,15.00
2023-03-22T09:20:25.159Z,14.50
2023-03-22T09:25:26.709Z,14.50
2023-03-22T09:30:28.519Z,14.50
2023-03-22T09:35:30.352Z,14.20
2023-03-22T09:40:32.885Z,14.60
2023-03-22T09:45:46.280Z,14.70
2023-03-22T09:50:52.495Z,14.70
2023-03-22T09:55:57.234Z,15.00
2023-03-22T10:00:59.074Z,15.20
2023-03-22T10:06:04.304Z,15.40
2023-03-22T10:11:11.361Z,15.00
2023-03-22T10:16:16.665Z,15.50
2023-03-22T10:21:19.029Z,15.60
2023-03-22T10:26:30.954Z,15.90
2023-03-22T10:31:33.955Z,15.60
2023-03-22T10:36:38.506Z,15.90
2023-03-22T10:41:40.406Z,16.10
2023-03-22T10:46:42.329Z,15.90
2023-03-22T10:51:46.253Z,16.00
2023-03-22T10:56:47.816Z,15.90
2023-03-22T11:01:51.004Z,16.00
2023-03-22T11:06:55.610Z,15.80
2023-03-22T11:12:01.077Z,15.70
2023-03-22T11:17:05.689Z,15.50
2023-03-22T11:22:15.837Z,15.40
2023-03-22T11:27:20.468Z,15.30
2023-03-22T11:32:22.047Z,15.40
2023-03-22T11:37:23.606Z,15.10
2023-03-22T11:42:29.302Z,15.10
2023-03-22T11:47:34.420Z,15.10
2023-03-22T11:52:36.090Z,15.10
2023-03-22T11:57:37.982Z,15.00
2023-03-22T12:02:50.431Z,15.10
2023-03-22T12:07:55.781Z,15.00
2023-03-22T12:13:00.299Z,15.00
2023-03-22T12:18:24.359Z,14.80
2023-03-22T12:23:27.751Z,14.80
2023-03-22T12:28:40.571Z,14.80
2023-03-22T12:33:47.484Z,15.00
2023-03-22T12:38:49.046Z,14.80
2023-03-22T12:44:01.036Z,14.70
2023-03-22T12:49:05.888Z,14.70
2023-03-22T12:54:11.558Z,14.60
2023-03-22T12:59:24.260Z,14.30
2023-03-22T13:04:25.812Z,14.20
2023-03-22T13:09:27.654Z,14.30
2023-03-22T13:14:48.051Z,14.20
2023-03-22T13:19:54.222Z,14.20
2023-03-22T13:24:58.898Z,14.10
2023-03-22T13:30:00.554Z,14.00
2023-03-22T13:35:02.232Z,14.00
2023-03-22T13:40:42.415Z,14.00
2023-03-22T13:46:02.886Z,14.00
2023-03-22T13:51:11.986Z,14.00
2023-03-22T13:56:14.346Z,14.00
2023-03-22T14:01:20.188Z,14.00
2023-03-22T14:06:27.978Z,14.10
2023-03-22T14:11:32.696Z,14.10
2023-03-22T14:16:34.236Z,14.20
2023-03-22T14:21:39.806Z,14.10
